createdAt,value
2023-02-22T00:02:24.447Z,46.72
2023-02-22T00:07:25.725Z,46.04
2023-02-22T00:12:27.004Z,46.10
2023-02-22T00:17:28.252Z,45.95
2023-02-22T00:22:29.549Z,45.96
2023-02-22T00:27:30.824Z,45.82
2023-02-22T00:32:32.105Z,45.27
2023-02-22T00:37:33.365Z,45.69
2023-02-22T00:42:34.752Z,45.34
2023-02-22T00:47:36.038Z,45.50
2023-02-22T00:52:37.366Z,45.33
2023-02-22T00:57:38.632Z,45.21
2023-02-22T01:02:39.980Z,45.21
2023-02-22T01:07:41.476Z,44.85
2023-02-22T01:12:42.786Z,44.92
2023-02-22T01:17:44.109Z,44.76
2023-02-22T01:22:45.427Z,44.88
2023-02-22T01:27:46.702Z,44.84
2023-02-22T01:32:47.959Z,44.53
2023-02-22T01:37:49.256Z,45.10
2023-02-22T01:42:50.568Z,44.74
2023-02-22T01:47:51.874Z,44.33
2023-02-22T01:52:53.154Z,43.82
2023-02-22T01:57:54.409Z,44.46
2023-02-22T02:02:55.668Z,44.25
2023-02-22T02:07:56.962Z,44.50
2023-02-22T02:12:58.227Z,44.30
2023-02-22T02:17:59.611Z,44.65
2023-02-22T02:23:00.940Z,44.26
2023-02-22T02:28:02.234Z,44.12
2023-02-22T02:33:03.534Z,44.27
2023-02-22T02:38:04.803Z,44.51
2023-02-22T02:43:06.060Z,44.52
2023-02-22T02:48:07.357Z,44.45
2023-02-22T02:53:08.649Z,44.31
2023-02-22T02:58:09.917Z,44.14
2023-02-22T03:03:11.188Z,44.07
2023-02-22T03:08:12.502Z,44.28
2023-02-22T03:13:13.840Z,44.53
2023-02-22T03:18:15.176Z,44.40
2023-02-22T03:23:16.496Z,44.63
2023-02-22T03:28:17.796Z,44.39
2023-02-22T03:33:19.067Z,44.74
2023-02-22T03:38:20.335Z,44.44
2023-02-22T03:43:21.605Z,44.28
2023-02-22T03:48:22.896Z,44.46
2023-02-22T03:53:24.252Z,44.35
2023-02-22T03:58:25.526Z,44.23
2023-02-22T04:03:26.802Z,44.45
2023-02-22T04:08:28.086Z,44.51
2023-02-22T04:13:29.371Z,44.45
2023-02-22T04:18:30.669Z,44.18
2023-02-22T04:23:31.953Z,44.32
2023-02-22T04:28:33.208Z,44.16
2023-02-22T04:33:34.510Z,44.37
2023-02-22T04:38:35.825Z,44.62
2023-02-22T04:43:37.136Z,45.55
2023-02-22T04:48:38.401Z,45.59
2023-02-22T04:53:39.712Z,45.59
2023-02-22T04:58:41.008Z,45.68
2023-02-22T05:03:42.363Z,45.47
2023-02-22T05:08:43.598Z,45.71
2023-02-22T05:13:44.938Z,45.22
2023-02-22T05:18:46.339Z,45.32
2023-02-22T05:23:47.698Z,45.43
2023-02-22T05:28:49.019Z,45.30
2023-02-22T05:33:50.344Z,45.49
2023-02-22T05:38:51.610Z,45.68
2023-02-22T05:43:52.950Z,45.50
2023-02-22T05:48:54.210Z,45.46
2023-02-22T05:53:55.548Z,45.49
2023-02-22T05:58:56.850Z,45.45
2023-02-22T06:03:58.149Z,45.71
2023-02-22T06:08:59.498Z,46.04
2023-02-22T06:14:00.809Z,46.02
2023-02-22T06:19:02.131Z,46.16
2023-02-22T06:24:03.431Z,45.67
2023-02-22T06:29:04.720Z,45.47
2023-02-22T06:34:06.002Z,45.28
2023-02-22T06:39:07.356Z,44.67
2023-02-22T06:44:08.648Z,45.01
2023-02-22T06:49:09.953Z,44.75
2023-02-22T06:54:11.350Z,44.07
2023-02-22T06:59:12.647Z,44.41
2023-02-22T07:04:13.961Z,44.40
2023-02-22T07:09:15.289Z,43.90
2023-02-22T07:14:16.612Z,43.72
2023-02-22T07:19:17.906Z,43.51
2023-02-22T07:24:19.180Z,43.36
2023-02-22T07:29:20.471Z,43.24
2023-02-22T07:34:21.743Z,42.76
2023-02-22T07:39:23.000Z,43.08
2023-02-22T07:44:24.312Z,43.08
2023-02-22T07:49:25.601Z,42.78
2023-02-22T07:54:26.880Z,42.63
2023-02-22T07:59:28.200Z,42.56
2023-02-22T08:04:29.494Z,42.80
2023-02-22T08:09:30.792Z,42.95
2023-02-22T08:14:32.066Z,42.45
2023-02-22T08:19:33.405Z,42.51
2023-02-22T08:24:34.643Z,42.38
2023-02-22T08:29:35.940Z,41.80
2023-02-22T08:34:37.219Z,41.92
2023-02-22T08:39:38.563Z,41.80
2023-02-22T08:44:39.845Z,41.61
2023-02-22T08:49:41.190Z,41.92
2023-02-22T08:54:42.567Z,42.03
2023-02-22T08:59:43.888Z,41.87
2023-02-22T09:04:45.202Z,42.14
2023-02-22T09:09:46.558Z,42.49
2023-02-22T09:14:47.886Z,42.85
2023-02-22T09:19:49.278Z,42.85
2023-02-22T09:24:50.597Z,42.04
2023-02-22T09:29:51.885Z,42.41
2023-02-22T09:34:53.184Z,42.44
2023-02-22T09:39:54.509Z,42.25
2023-02-22T09:44:55.865Z,42.55
2023-02-22T09:49:57.173Z,42.91
2023-02-22T09:54:58.443Z,43.12
2023-02-22T09:59:59.771Z,43.04
2023-02-22T10:05:01.101Z,43.25
2023-02-22T10:10:02.424Z,43.47
2023-02-22T10:15:03.667Z,43.41
2023-02-22T10:20:04.983Z,43.60
2023-02-22T10:25:08.695Z,43.88
2023-02-22T10:30:23.858Z,43.73
2023-02-22T10:35:26.137Z,43.23
2023-02-22T10:40:27.431Z,43.37
2023-02-22T10:45:28.740Z,43.65
2023-02-22T10:50:30.022Z,43.29
2023-02-22T10:55:31.329Z,43.22
2023-02-22T11:00:32.633Z,43.82
2023-02-22T11:05:33.903Z,44.71
2023-02-22T11:10:35.228Z,44.32
2023-02-22T11:15:36.596Z,44.73
2023-02-22T11:20:38.007Z,45.04
2023-02-22T11:25:39.327Z,44.59
2023-02-22T11:30:40.680Z,45.19
2023-02-22T11:35:41.966Z,45.25
2023-02-22T11:40:43.296Z,45.24
2023-02-22T11:45:56.628Z,45.12
2023-02-22T11:50:59.482Z,45.20
2023-02-22T11:56:00.829Z,45.13
2023-02-22T12:01:02.129Z,45.06
2023-02-22T12:06:03.431Z,45.49
2023-02-22T12:11:04.785Z,45.28
2023-02-22T12:16:06.120Z,45.05
2023-02-22T12:21:07.454Z,44.79
2023-02-22T12:26:11.457Z,45.24
2023-02-22T12:31:13.141Z,44.76
2023-02-22T12:36:14.663Z,44.76
2023-02-22T12:41:16.263Z,44.87
2023-02-22T12:46:17.680Z,45.24
2023-02-22T12:51:19.172Z,45.13
2023-02-22T12:56:20.597Z,45.34
2023-02-22T13:01:22.120Z,45.29
2023-02-22T13:06:23.475Z,44.92
2023-02-22T13:11:24.801Z,45.17
2023-02-22T13:16:26.177Z,45.31
2023-02-22T13:21:27.440Z,45.15
2023-02-22T13:26:28.763Z,45.13
2023-02-22T13:31:30.246Z,45.02
2023-02-22T13:36:31.733Z,45.28
2023-02-22T13:41:33.010Z,45.29
2023-02-22T13:46:34.403Z,45.20
2023-02-22T13:51:35.836Z,45.00
2023-02-22T13:56:37.103Z,45.08
2023-02-22T14:01:38.480Z,44.90
2023-02-22T14:06:39.796Z,45.05
2023-02-22T14:11:41.182Z,45.29
2023-02-22T14:16:42.490Z,45.35
2023-02-22T14:21:43.821Z,44.88
2023-02-22T14:26:45.129Z,45.26
2023-02-22T14:31:46.706Z,44.88
2023-02-22T14:36:48.018Z,44.90
2023-02-22T14:41:49.307Z,44.96
2023-02-22T14:46:50.689Z,45.15
2023-02-22T14:51:52.005Z,45.08
2023-02-22T14:56:53.298Z,45.11
2023-02-22T15:02:06.021Z,45.47
2023-02-22T15:07:12.628Z,45.71
2023-02-22T15:12:14.413Z,45.27
2023-02-22T15:17:15.733Z,45.58
2023-02-22T15:22:17.026Z,45.35
2023-02-22T15:27:18.317Z,45.64
2023-02-22T15:32:19.790Z,45.66
2023-02-22T15:37:21.184Z,45.71
2023-02-22T15:42:22.477Z,45.71
2023-02-22T15:47:23.776Z,46.33
2023-02-22T15:52:25.097Z,46.20
2023-02-22T15:57:26.420Z,46.02
2023-02-22T16:02:27.827Z,45.87
2023-02-22T16:07:29.142Z,46.00
2023-02-22T16:12:30.412Z,45.99
2023-02-22T16:17:31.731Z,45.93
2023-02-22T16:22:33.079Z,46.12
2023-02-22T16:27:34.408Z,46.05
2023-02-22T16:32:35.816Z,45.96
2023-02-22T16:37:37.271Z,46.22
2023-02-22T16:42:38.594Z,45.98
2023-02-22T16:47:39.879Z,47.37
2023-02-22T16:52:41.195Z,47.58
2023-02-22T16:57:42.475Z,48.45
2023-02-22T17:02:43.760Z,49.64
2023-02-22T17:07:45.161Z,50.32
2023-02-22T17:12:46.398Z,51.09
2023-02-22T17:17:47.728Z,51.46
2023-02-22T17:22:49.046Z,51.66
2023-02-22T17:27:50.334Z,52.03
2023-02-22T17:32:51.650Z,51.87
2023-02-22T17:37:52.901Z,52.02
2023-02-22T17:42:54.228Z,51.75
2023-02-22T17:47:55.496Z,52.04
2023-02-22T17:52:56.802Z,51.67
2023-02-22T17:57:58.059Z,52.16
2023-02-22T18:02:59.406Z,52.21
2023-02-22T18:08:00.796Z,51.57
2023-02-22T18:13:02.179Z,51.57
2023-02-22T18:18:03.448Z,52.08
2023-02-22T18:23:04.731Z,51.91
2023-02-22T18:28:06.034Z,51.96
2023-02-22T18:33:07.306Z,51.88
2023-02-22T18:38:09.631Z,50.91
2023-02-22T18:43:11.818Z,49.83
2023-02-22T18:48:13.096Z,50.60
2023-02-22T18:53:14.484Z,51.11
2023-02-22T18:58:15.892Z,51.15
2023-02-22T19:03:17.150Z,51.25
2023-02-22T19:08:18.453Z,51.72
2023-02-22T19:13:19.779Z,51.35
2023-02-22T19:18:21.156Z,51.20
2023-02-22T19:23:22.463Z,51.48
2023-02-22T19:28:23.801Z,51.73
2023-02-22T19:33:25.050Z,51.85
2023-02-22T19:38:26.306Z,52.60
2023-02-22T19:43:27.562Z,52.47
2023-02-22T19:48:28.819Z,52.31
2023-02-22T19:53:30.138Z,51.82
2023-02-22T19:58:31.495Z,51.17
2023-02-22T20:03:32.877Z,50.90
2023-02-22T20:08:34.182Z,51.78
2023-02-22T20:13:35.476Z,51.92
2023-02-22T20:18:36.813Z,52.19
2023-02-22T20:23:38.076Z,52.66
2023-02-22T20:28:39.368Z,51.98
2023-02-22T20:33:42.163Z,51.24
2023-02-22T20:38:43.522Z,50.87
2023-02-22T20:43:44.804Z,51.95
2023-02-22T20:48:46.199Z,52.46
2023-02-22T20:53:47.467Z,52.22
2023-02-22T20:58:48.758Z,51.56
2023-02-22T21:03:50.042Z,51.32
2023-02-22T21:08:51.456Z,50.79
2023-02-22T21:13:52.780Z,50.77
2023-02-22T21:18:54.097Z,50.16
2023-02-22T21:23:55.425Z,49.94
2023-02-22T21:28:56.662Z,49.57
2023-02-22T21:33:57.932Z,49.43
2023-02-22T21:38:59.217Z,48.72
2023-02-22T21:44:00.496Z,48.71
2023-02-22T21:49:01.801Z,48.63
2023-02-22T21:54:03.180Z,48.53
2023-02-22T21:59:04.491Z,48.64
2023-02-22T22:04:05.810Z,48.17
2023-02-22T22:09:07.093Z,47.99
2023-02-22T22:14:08.342Z,48.21
2023-02-22T22:19:09.604Z,48.25
2023-02-22T22:24:10.923Z,48.09
2023-02-22T22:29:12.224Z,48.13
2023-02-22T22:34:13.589Z,47.73
2023-02-22T22:39:14.999Z,47.10
2023-02-22T22:44:16.347Z,47.30
2023-02-22T22:49:17.624Z,47.11
2023-02-22T22:54:18.931Z,47.16
2023-02-22T22:59:20.287Z,46.92
2023-02-22T23:04:21.540Z,47.13
2023-02-22T23:09:22.825Z,46.97
2023-02-22T23:14:24.308Z,46.78
2023-02-22T23:19:25.592Z,46.66
2023-02-22T23:24:26.831Z,46.48
2023-02-22T23:29:28.102Z,46.30
2023-02-22T23:34:29.397Z,46.61
2023-02-22T23:39:30.703Z,46.75
2023-02-22T23:44:32.005Z,46.27
2023-02-22T23:49:33.292Z,46.01
2023-02-22T23:54:34.595Z,46.40
2023-02-22T23:59:35.988Z,45.91
